Ardmore, SD

11:24 PM MDT on June 29, 2015 (GMT -0600)
Chadron Municipal | | Change Station
CLOSE
Current Station
Airport
Location: Chadron,
Elevation: 3297 ft
Nearby Weather Stations

Elev 3297 ft 42.84 °N, 103.10 °W | Updated 31 minutes ago

Clear
Clear
64 °F
Feels Like 64 °F
N
7
Wind Variable Wind from WSW

Today
High -- | Low -- °F
--% Chance of Precip.
Yesterday
High -- | Low -- °F
Precip. -- in
5:18 AM 8:37 PM
Waxing Gibbous, 96% visible
Pressure 30.00 in
Visibility 10.0 miles
Clouds Clear
Dew Point 60 °F
Humidity 87%
Rainfall 0.01 in
Snow Depth Not available.
UV 0 out of 12
Pollen 6.10 out of 12
Air Quality Not available.
Flu Activity Sporadic
METAR KCDR 300453Z AUTO 24006KT 10SM CLR 18/16 A3007 RMK AO2 SLP158 T01780156

More Conditions Fewer Conditions

Pressure 30.00 in
Visibility 10.0 miles
Clouds Clear
Dew Point 60 °F
Humidity 87%
Rainfall 0.01 in
Snow Depth Not available.
UV 0 out of 12
Pollen 6.10 out of 12
Air Quality Not available.
Flu Activity Sporadic
METAR KCDR 300453Z AUTO 24006KT 10SM CLR 18/16 A3007 RMK AO2 SLP158 T01780156

More Conditions Fewer Conditions

10-Day Weather Forecast

×

Almanac

Astronomy

Jun. 29, 2015 Rise Set
Actual Time
Civil Twilight
Nautical Twilight
Astronomical Twilight
Moon
Length of Visible Light
Length of Day
Tomorrow will be .
, % of the Moon is Illuminated

Today's Extremes

State Highs State Lows

Community

WunderPhotos

Upload Photos

1,833,970 photos uploaded!

WunderBlogs® & News

Nearby

Air Quality

  Air Quality AQ Index Pollutant
Not available.

Snow Depth

Station Depth Elevation

Earthquake Activity

City Distance Mag. Time & Date
Minimum magnitude displayed is 2.5.

Coastal Water Temperatures

Place Temperature

Stations

Nearby Weather Stations

Station Location Temp. Windchill Dew Point Humidity Wind Precip. Elev Updated Type